Date,TemperatureHighF,TemperatureAvgF,TemperatureLowF,DewpointHighF,DewpointAvgF,DewpointLowF,HumidityHigh,HumidityAvg,HumidityLow,PressureMaxIn,PressureMinIn,WindSpeedMaxMPH,WindSpeedAvgMPH,GustSpeedMaxMPH,PrecipitationSumIn
2014-1-1,21.4,16.1,12.4,13.0,8.7,4.0,87,73,55,30.38,30.22,15,5,20,0.00
2014-1-2,14.3,10.2,5.4,11.0,6.5,0.0,89,84,79,30.26,29.98,17,8,24,0.00
2014-1-3,11.5,4.3,-0.8,6.0,-2.7,-7.0,92,73,53,30.41,30.08,12,5,18,0.00
2014-1-4,35.7,25.7,11.3,21.0,8.7,1.0,79,52,28,30.23,29.93,28,12,36,0.00
2014-1-5,37.1,34.2,31.1,32.0,25.7,20.0,96,72,51,30.14,29.40,10,-8,13,0.30
2014-1-6,45.8,21.4,1.1,44.0,16.7,-7.0,98,82,67,29.94,29.24,31,14,40,0.29
2014-1-7,7.1,2.4,-2.4,5.0,-4.1,-15.0,89,75,56,30.27,29.94,26,14,37,0.00
2014-1-8,19.8,14.2,5.6,17.0,8.5,1.0,90,78,67,30.44,30.27,16,8,24,0.00
2014-1-9,24.1,15.9,6.3,17.0,10.5,3.0,94,80,60,30.60,30.33,10,2,16,0.00
2014-1-10,39.8,33.4,22.1,36.0,30.1,18.0,92,88,80,30.33,29.79,6,2,10,0.07
2014-1-11,49.2,43.5,35.8,47.0,41.3,34.0,99,92,83,29.77,29.23,24,9,33,0.23
2014-1-12,36.1,34.4,32.4,34.0,31.7,30.0,94,89,84,30.00,29.56,17,9,28,0.00
2014-1-13,50.7,43.1,34.6,42.0,35.5,30.0,91,75,57,29.95,29.62,16,8,23,0.16
2014-1-14,44.7,36.8,29.7,43.0,33.3,27.0,94,87,69,29.80,29.62,15,5,18,0.02
2014-1-15,36.2,31.3,27.6,32.0,23.9,19.0,87,74,61,29.99,29.74,26,10,37,0.00
2014-1-16,31.5,28.5,25.9,24.0,20.5,16.0,89,73,55,29.96,29.80,15,4,21,0.00
2014-1-17,36.2,31.8,29.0,28.0,25.4,23.0,90,77,63,29.81,29.73,22,5,29,0.00
2014-1-18,30.7,21.8,18.8,28.0,17.3,13.0,89,83,73,29.91,29.79,23,11,30,0.00
2014-1-19,28.7,23.6,18.2,24.0,19.1,12.0,89,83,75,29.83,29.47,38,13,46,0.00
2014-1-20,29.9,21.4,12.5,29.0,16.8,3.0,95,82,66,30.02,29.49,14,6,21,0.00
2014-1-21,12.4,6.8,4.2,8.0,3.4,1.0,93,86,76,30.15,30.02,11,4,15,0.00
2014-1-22,10.6,6.1,2.7,5.0,1.4,-4.0,91,81,60,30.13,30.03,10,3,11,0.00
2014-1-23,12.6,8.4,0.6,10.0,5.9,-3.0,94,89,80,30.38,30.04,11,4,15,0.00
2014-1-24,18.9,10.0,-0.1,11.0,2.6,-4.0,86,73,55,30.39,29.66,29,12,43,0.00
2014-1-25,25.0,18.6,8.8,23.0,14.5,1.0,93,84,65,29.65,29.21,28,12,39,0.00
2014-1-26,29.4,13.0,3.8,24.0,7.0,-5.0,91,77,65,29.76,29.41,15,8,27,0.00
2014-1-27,30.8,15.2,3.0,27.0,7.3,-5.0,95,71,55,30.16,29.30,22,9,33,0.00
2014-1-28,7.0,3.5,-1.4,1.0,-3.0,-8.0,81,74,66,30.35,30.16,24,10,27,0.00
2014-1-29,15.2,8.8,2.4,10.0,3.4,-4.0,88,79,66,30.24,30.05,27,12,36,0.00
2014-1-30,32.7,21.3,9.8,15.0,6.4,3.0,74,55,32,30.25,29.80,26,8,34,0.00
2014-1-31,34.3,31.7,29.6,28.0,24.4,16.0,91,75,57,30.14,29.87,23,9,33,0.00
2014-2-1,39.8,32.9,26.1,39.0,31.3,25.0,97,93,81,30.16,29.80,16,4,20,0.51
2014-2-2,36.2,29.7,23.6,35.0,27.1,18.0,97,90,79,30.21,29.82,7,3,13,0.06
2014-2-3,26.5,22.1,15.7,20.0,16.7,12.0,91,80,64,30.37,30.20,8,3,11,0.00
2014-2-4,25.7,19.3,8.8,18.0,13.6,7.0,92,79,65,30.48,30.23,6,2,11,0.00
2014-2-5,23.8,21.4,15.1,23.0,19.5,11.0,95,92,80,30.24,29.76,15,8,25,0.00
2014-2-6,19.3,13.9,2.9,17.0,10.3,0.0,92,85,75,30.35,30.19,18,7,32,0.00
2014-2-7,15.1,10.1,6.8,9.0,5.4,2.0,88,81,69,30.31,30.21,27,13,35,0.00
2014-2-8,16.0,11.4,5.6,12.0,7.3,2.0,90,83,76,30.33,30.18,15,7,18,0.00
2014-2-9,20.7,14.7,10.0,17.0,12.3,8.0,92,90,84,30.18,29.92,7,3,12,0.00
2014-2-10,20.1,13.1,4.4,13.0,7.8,2.0,92,80,61,30.30,30.08,9,4,14,0.00
2014-2-11,16.1,11.7,1.3,8.0,4.5,-1.0,93,73,57,30.49,30.29,12,3,14,0.00
2014-2-12,28.1,11.4,-3.2,11.0,3.7,-6.0,93,74,42,30.48,30.12,9,2,12,0.00
2014-2-13,26.4,21.4,9.4,21.0,16.1,5.0,91,80,64,30.12,29.51,10,3,12,0.00
2014-2-14,28.0,24.9,21.7,26.0,22.5,20.0,95,90,77,29.68,29.41,18,5,24,0.00
2014-2-15,27.1,22.6,11.8,24.0,18.7,8.0,97,85,70,29.99,29.68,11,5,18,0.00
2014-2-16,19.6,13.6,7.4,16.0,9.8,6.0,92,85,69,30.29,29.97,10,4,16,0.00
2014-2-17,31.9,15.3,-2.3,14.0,5.7,-5.0,90,68,46,30.44,29.75,14,5,19,0.00
2014-2-18,32.8,27.0,23.7,29.0,23.6,12.0,96,88,43,29.97,29.67,23,10,33,0.00
2014-2-19,47.1,38.5,25.2,35.0,30.8,23.0,98,76,54,30.02,29.55,17,7,23,0.03
2014-2-20,41.1,35.0,30.1,37.0,32.3,29.0,100,90,64,30.07,29.64,13,5,15,0.82
2014-2-21,49.7,38.8,34.0,48.0,33.0,22.0,95,81,57,29.74,29.46,34,15,42,0.37
2014-2-22,39.6,36.8,34.0,31.0,23.2,18.0,89,59,46,29.92,29.73,36,18,46,0.00
2014-2-23,35.5,31.5,24.7,27.0,21.7,14.0,84,68,47,29.98,29.91,21,9,27,0.00
2014-2-24,24.3,20.8,18.3,17.0,12.4,6.0,87,70,51,30.10,29.94,20,7,25,0.00
2014-2-25,20.3,17.9,15.3,17.0,9.9,4.0,87,71,57,30.10,29.86,14,7,20,0.00
2014-2-26,19.9,11.1,7.0,17.0,0.4,-7.0,89,63,46,30.04,29.70,23,10,29,0.00
2014-2-27,16.4,11.2,4.2,11.0,1.6,-10.0,86,66,39,30.17,29.53,24,9,32,0.00
2014-2-28,17.3,7.7,-1.4,-2.0,-5.5,-11.0,79,57,32,30.44,30.18,10,4,14,0.00
2014-3-1,33.9,24.5,10.4,23.0,10.3,-2.0,85,57,37,30.22,30.04,18,6,21,0.00
2014-3-2,17.0,13.3,5.5,13.0,3.8,-8.0,85,68,44,30.25,30.18,10,4,14,0.00
2014-3-3,12.2,6.2,-1.5,1.0,-2.5,-6.0,83,68,50,30.43,30.25,10,4,15,0.00
2014-3-4,16.8,8.2,-3.4,11.0,2.0,-7.0,85,76,48,30.39,30.21,11,3,13,0.00
2014-3-5,21.8,16.8,11.9,15.0,11.3,7.0,91,79,58,30.54,30.22,12,3,17,0.00
2014-3-6,27.7,17.6,7.2,9.0,5.9,1.0,88,62,42,30.59,30.20,12,5,18,0.00
2014-3-7,44.5,30.7,16.3,26.0,18.4,8.0,78,61,47,30.20,29.82,9,4,16,0.00
2014-3-8,35.5,31.4,25.3,30.0,25.9,19.0,91,80,72,30.01,29.79,12,4,15,0.00
2014-3-9,31.7,23.9,14.1,23.0,17.3,11.0,87,76,70,30.13,29.73,19,8,26,0.00
2014-3-10,45.8,38.8,31.9,39.0,32.5,23.0,90,78,67,29.75,29.44,22,10,31,0.00
2014-3-11,52.5,41.7,35.2,39.0,35.6,33.0,93,80,54,29.70,29.50,10,4,19,0.00
2014-3-12,38.1,26.4,13.1,35.0,24.3,11.0,93,91,88,29.79,29.41,31,8,31,0.09
2014-3-13,18.4,13.3,7.0,13.0,5.8,1.0,91,73,49,30.10,29.79,17,8,21,0.00
2014-3-14,54.0,38.7,17.8,39.0,25.8,12.0,84,62,40,30.02,29.52,25,11,38,0.05
2014-3-15,43.1,34.1,22.2,37.0,26.8,13.0,89,75,56,30.20,29.54,17,-1,26,0.00
2014-3-16,21.9,17.0,10.8,14.0,6.8,2.0,78,65,51,30.42,30.20,16,6,20,0.00
2014-3-17,29.7,19.3,7.0,15.0,8.8,3.0,84,64,44,30.27,30.04,11,5,13,0.00
2014-3-18,49.1,31.7,19.6,29.0,19.9,12.0,76,63,45,30.15,30.06,10,3,14,0.00
2014-3-19,49.3,41.4,32.6,41.0,32.3,21.0,93,71,56,30.06,29.63,18,6,24,0.33
2014-3-20,41.5,35.1,32.5,40.0,29.4,24.0,94,80,66,29.96,29.64,23,11,31,0.02
2014-3-21,38.3,31.7,25.4,25.0,21.9,19.0,78,68,55,30.12,29.88,10,4,16,0.00
2014-3-22,47.8,35.6,30.8,35.0,27.7,21.0,88,73,54,30.13,29.54,19,7,27,0.05
2014-3-23,29.6,21.4,18.1,23.0,11.4,6.0,81,66,52,30.32,30.12,12,7,21,0.00
2014-3-24,25.4,20.1,16.1,17.0,12.0,7.0,87,71,54,30.34,30.11,13,6,18,0.00
2014-3-25,34.2,26.1,19.0,23.0,14.8,6.0,88,65,36,30.11,29.88,19,7,29,0.00
2014-3-26,24.3,19.1,15.1,13.0,5.8,3.0,76,57,43,30.29,30.00,15,7,24,0.00
2014-3-27,44.4,30.5,15.4,32.0,13.7,5.0,77,53,26,30.30,29.83,17,5,25,0.00
2014-3-28,52.4,43.8,36.8,46.0,36.8,29.0,90,77,61,30.18,29.67,25,8,36,0.10
2014-3-29,37.8,34.3,30.7,33.0,30.6,29.0,97,86,80,30.20,29.96,19,6,22,0.00
2014-3-30,45.4,35.8,30.1,32.0,28.8,24.0,97,77,56,30.07,29.95,15,6,19,0.09
2014-3-31,51.8,39.2,25.9,36.0,29.0,22.0,85,68,51,30.22,30.07,8,1,12,0.00
2014-4-1,67.8,47.1,36.0,42.0,32.6,28.0,82,60,33,30.15,29.71,19,5,23,0.00
2014-4-2,45.9,38.7,31.4,34.0,30.8,27.0,88,74,58,30.21,29.94,19,6,24,0.00
2014-4-3,42.3,34.9,24.3,32.0,27.1,22.0,93,74,61,30.22,30.00,14,5,19,0.00
2014-4-4,53.0,43.3,35.1,50.0,39.6,26.0,95,87,68,29.95,29.40,32,9,39,0.50
2014-4-5,39.6,35.6,30.8,35.0,28.7,24.0,89,76,60,30.16,29.63,30,11,41,0.00
2014-4-6,49.6,39.2,27.8,32.0,27.3,22.0,95,66,35,30.21,30.08,10,3,15,0.00
2014-4-7,54.6,42.9,33.8,44.0,33.5,26.0,96,72,42,30.08,29.42,13,4,23,0.69
2014-4-8,46.6,39.5,33.6,43.0,37.8,32.0,98,94,82,29.71,29.23,14,5,16,0.58
2014-4-9,49.5,39.3,31.5,35.0,31.1,22.0,96,75,37,29.99,29.71,16,5,19,0.00
2014-4-10,67.9,52.1,34.1,51.0,36.1,28.0,94,58,31,29.98,29.64,25,11,39,0.30
2014-4-11,59.3,49.1,37.9,50.0,41.5,33.0,97,78,38,30.03,29.83,10,3,13,0.02
2014-4-12,65.6,51.1,38.4,46.0,40.2,36.0,93,70,34,30.15,29.92,20,4,21,0.00
2014-4-13,74.7,60.5,47.2,58.0,49.9,40.0,85,70,52,29.99,29.73,21,7,29,0.11
2014-4-14,73.9,60.7,41.8,59.0,52.1,41.0,98,76,50,29.73,29.53,22,8,30,0.53
2014-4-15,41.2,32.7,26.8,40.0,29.4,15.0,99,88,62,30.20,29.60,16,7,23,0.25
2014-4-16,39.1,31.6,25.9,27.0,20.4,15.0,77,64,51,30.55,30.21,17,4,21,0.00
2014-4-17,62.2,45.5,31.0,40.0,27.6,22.0,76,52,31,30.57,30.35,12,5,16,0.01
2014-4-18,60.6,51.0,44.0,45.0,37.4,31.0,91,61,46,30.36,30.21,13,5,17,0.00
2014-4-19,52.6,44.5,34.9,37.0,33.3,30.0,88,67,46,30.46,30.29,13,5,17,0.00
2014-4-20,69.6,53.0,37.7,41.0,33.2,27.0,75,51,21,30.42,30.14,9,3,12,0.00
2014-4-21,74.1,60.6,51.7,44.0,38.3,34.0,60,45,29,30.14,29.69,14,5,17,0.00
2014-4-22,63.2,52.0,43.1,57.0,45.6,39.0,98,80,46,29.72,29.55,17,6,22,0.54
2014-4-23,48.7,42.4,37.3,39.0,32.8,20.0,95,72,40,30.07,29.71,15,7,19,0.04
2014-4-24,55.1,45.0,34.4,32.0,24.3,17.0,73,47,26,30.18,30.02,12,4,14,0.00
2014-4-25,61.7,50.8,40.3,47.0,33.1,26.0,97,55,32,30.01,29.58,15,5,19,0.32
2014-4-26,48.0,43.6,39.5,44.0,39.6,32.0,97,86,72,30.05,29.72,11,5,17,0.14
2014-4-27,53.4,44.9,38.8,37.0,33.5,31.0,82,66,44,30.20,30.05,11,4,16,0.00
2014-4-28,56.5,47.9,37.3,36.0,33.4,32.0,82,59,44,30.19,29.96,16,6,22,0.00
2014-4-29,58.2,51.5,48.2,51.0,44.1,35.0,97,77,58,30.02,29.84,22,9,30,0.68
2014-4-30,55.1,51.4,47.7,52.0,48.1,43.0,96,89,72,30.05,29.71,14,4,20,0.65
2014-5-1,55.9,49.7,43.9,51.0,43.8,39.0,98,82,55,29.78,29.71,24,9,28,0.02
2014-5-2,52.2,47.3,43.8,45.0,42.4,39.0,92,83,77,29.82,29.70,27,10,29,0.00
2014-5-3,56.2,48.9,45.0,49.0,44.4,43.0,91,84,64,29.81,29.62,19,8,30,0.11
2014-5-4,55.3,47.8,39.9,42.0,37.1,34.0,90,68,47,30.01,29.73,17,8,25,0.00
2014-5-5,56.8,47.2,35.7,40.0,36.3,33.0,92,68,42,30.07,29.96,10,2,10,0.00
2014-5-6,58.9,50.9,43.5,40.0,36.4,33.0,84,60,40,30.14,29.96,9,2,14,0.00
2014-5-7,66.5,54.1,43.7,43.0,37.0,32.0,74,54,37,30.22,30.06,15,5,15,0.00
2014-5-8,76.4,61.4,48.4,59.0,51.0,38.0,94,70,53,30.08,29.96,11,3,13,0.20
2014-5-9,83.2,67.3,55.7,62.0,57.1,52.0,93,73,40,29.97,29.75,16,6,44,0.20
2014-5-10,64.3,58.3,49.6,62.0,49.7,43.0,92,74,54,29.94,29.74,24,9,25,0.00
2014-5-11,70.3,56.6,41.1,47.0,40.4,34.0,94,60,26,30.11,29.94,15,4,21,0.00
2014-5-12,74.7,63.9,50.9,64.0,55.6,41.0,93,75,58,30.06,30.00,11,3,17,0.00
2014-5-13,84.8,70.0,58.9,69.0,63.5,54.0,97,82,55,30.06,29.92,14,5,24,1.01
2014-5-14,72.6,65.3,59.9,67.0,62.6,58.0,96,91,78,30.08,29.97,12,4,20,0.27
2014-5-15,75.1,65.0,50.3,63.0,59.3,49.0,97,83,61,29.98,29.79,14,6,26,0.44
2014-5-16,50.6,47.3,43.5,50.0,44.3,39.0,97,89,74,30.00,29.85,14,5,18,0.37
2014-5-17,53.1,46.4,39.4,45.0,39.4,36.0,92,78,60,30.19,29.98,16,3,17,0.00
2014-5-18,58.1,49.4,39.8,45.0,40.2,31.0,96,73,38,30.27,30.19,15,4,20,0.01
2014-5-19,64.5,53.8,41.9,51.0,44.8,40.0,93,73,55,30.27,30.16,19,5,19,0.00
2014-5-20,69.8,56.7,46.3,55.0,47.2,41.0,94,73,40,30.19,29.96,8,2,11,0.21
2014-5-21,71.4,61.5,53.4,63.0,57.6,51.0,96,87,71,29.95,29.80,15,4,18,0.03
2014-5-22,69.2,59.5,52.9,58.0,54.8,50.0,98,85,62,29.94,29.76,12,3,19,0.00
2014-5-23,55.5,51.3,47.1,52.0,48.9,46.0,97,91,85,30.07,29.92,9,4,15,0.11
2014-5-24,68.6,57.3,46.3,55.0,50.5,46.0,98,80,58,30.14,30.07,10,4,15,0.01
2014-5-25,73.7,61.4,47.4,53.0,48.2,44.0,96,66,37,30.15,30.05,16,5,19,0.00
2014-5-26,76.6,67.3,56.2,59.0,53.4,48.0,81,62,47,30.05,29.89,14,6,22,0.00
2014-5-27,76.7,67.5,60.5,67.0,60.2,54.0,95,78,65,29.90,29.78,16,6,23,0.13
2014-5-28,64.9,60.3,56.5,59.0,54.8,51.0,97,82,69,30.12,29.83,10,3,15,0.00
2014-5-29,66.4,59.2,53.0,58.0,53.9,51.0,94,83,73,30.13,30.07,10,2,13,0.00
2014-5-30,74.2,62.5,47.6,58.0,53.3,47.0,97,74,49,30.17,30.11,9,2,12,0.00
2014-5-31,73.0,62.8,50.7,54.0,44.8,38.0,96,58,29,30.27,30.16,13,3,17,0.00
2014-6-1,81.9,66.2,45.9,58.0,48.6,43.0,90,57,31,30.25,30.05,10,2,13,0.00
2014-6-2,79.7,73.1,65.3,70.0,63.6,53.0,85,72,61,30.06,29.87,20,8,24,0.00
2014-6-3,78.0,70.5,59.4,69.0,63.9,51.0,96,81,58,29.87,29.72,19,7,28,0.79
2014-6-4,70.5,61.8,52.8,57.0,53.8,47.0,93,76,44,29.89,29.76,13,4,16,0.00
2014-6-5,64.1,55.7,47.0,54.0,49.1,46.0,97,80,60,29.92,29.75,11,3,15,0.00
2014-6-6,72.6,60.5,45.8,55.0,49.8,44.0,95,70,40,30.01,29.92,10,3,15,0.00
2014-6-7,78.8,65.5,48.6,57.0,51.5,46.0,97,65,32,30.08,29.93,11,1,11,0.00
2014-6-8,78.0,62.6,52.8,65.0,56.8,50.0,98,83,54,29.93,29.77,7,2,13,0.75
2014-6-9,75.1,67.0,57.6,65.0,60.4,55.0,98,80,63,29.96,29.89,14,3,14,0.00
2014-6-10,76.4,69.0,58.9,66.0,62.2,58.0,95,79,65,29.94,29.90,12,3,14,0.00
2014-6-11,80.7,72.4,65.1,69.0,65.8,60.0,95,81,62,29.92,29.77,12,3,17,0.11
2014-6-12,78.8,70.8,67.0,69.0,66.3,64.0,96,86,70,29.81,29.72,13,4,18,0.24
2014-6-13,72.9,67.4,58.5,67.0,62.1,49.0,96,84,62,29.89,29.70,16,4,19,0.06
2014-6-14,63.5,57.5,52.3,55.0,50.3,46.0,93,77,64,30.13,29.90,13,4,17,0.00
2014-6-15,75.6,61.6,47.0,60.0,54.0,46.0,97,78,52,30.22,30.06,7,2,13,0.00
2014-6-16,80.6,68.1,53.5,70.0,61.9,52.0,96,81,64,30.09,29.94,16,4,20,0.57
2014-6-17,86.1,73.8,63.4,73.0,67.6,62.0,96,82,58,30.03,29.73,22,6,33,0.10
2014-6-18,77.1,69.6,65.0,67.0,64.1,62.0,94,83,68,30.02,29.84,11,3,17,0.02
2014-6-19,74.3,67.3,54.2,66.0,55.2,41.0,96,69,30,30.12,29.99,11,3,13,0.00
2014-6-20,73.4,62.5,49.8,53.0,49.3,44.0,95,65,41,30.12,29.98,8,2,12,0.00
2014-6-21,73.8,65.8,55.8,55.0,50.2,46.0,85,59,37,29.99,29.91,11,2,13,0.00
2014-6-22,78.3,67.6,51.1,58.0,53.2,49.0,93,63,39,29.98,29.93,9,2,14,0.00
2014-6-23,84.4,72.0,56.5,67.0,60.7,51.0,85,69,52,29.99,29.89,7,1,10,0.00
2014-6-24,84.3,75.5,69.4,71.0,68.6,67.0,94,80,64,29.91,29.80,14,6,27,0.28
2014-6-25,75.9,71.3,68.1,70.0,68.2,66.0,97,90,79,29.91,29.83,10,3,13,0.03
2014-6-26,79.5,71.7,65.6,66.0,62.1,55.0,96,75,43,30.03,29.90,7,2,10,0.00
2014-6-27,83.3,73.4,62.8,70.0,62.9,59.0,97,73,47,30.12,30.03,7,2,10,0.00
2014-6-28,88.5,76.9,63.7,72.0,66.3,58.0,89,71,46,30.17,30.07,8,2,11,0.00
2014-6-29,84.4,76.8,69.9,73.0,69.3,65.0,95,78,65,30.10,29.94,12,4,19,0.22
2014-6-30,85.5,77.1,68.8,74.0,70.6,67.0,95,81,63,29.96,29.79,13,5,19,0.00
2014-7-1,83.1,77.9,71.6,74.0,70.3,68.0,88,78,62,29.78,29.58,25,8,35,0.06
2014-7-2,82.5,75.2,68.5,71.0,66.9,60.0,94,77,47,29.88,29.71,24,6,26,0.00
2014-7-3,72.3,67.0,59.4,67.0,63.3,54.0,94,88,80,30.04,29.88,7,2,16,0.17
2014-7-4,73.4,64.1,55.8,56.0,51.8,46.0,91,67,41,30.21,30.04,11,4,16,0.00
2014-7-5,75.3,66.2,53.4,57.0,52.2,48.0,86,63,40,30.23,30.08,14,5,21,0.00
2014-7-6,78.4,70.3,58.3,63.0,58.7,54.0,93,69,44,30.08,29.78,20,7,28,0.00
2014-7-7,78.1,72.6,67.8,72.0,67.7,62.0,95,85,72,29.78,29.61,22,10,35,1.04
2014-7-8,76.7,71.1,64.0,72.0,67.5,60.0,94,88,81,29.70,29.46,15,6,22,0.46
2014-7-9,73.4,66.4,59.0,62.0,58.7,54.0,90,77,58,30.01,29.70,9,3,16,0.00
2014-7-10,73.8,63.9,50.8,58.0,53.3,50.0,97,71,49,30.18,30.01,7,2,14,0.00
2014-7-11,79.3,67.5,53.0,62.0,57.1,51.0,96,72,47,30.23,30.14,7,1,11,0.00
2014-7-12,81.7,72.2,59.3,65.0,59.8,56.0,95,67,44,30.17,29.95,12,2,17,0.00
2014-7-13,80.6,75.0,70.6,73.0,68.7,62.0,94,81,69,29.94,29.74,21,7,26,0.05
2014-7-14,79.1,70.3,61.0,69.0,63.5,55.0,96,79,66,29.87,29.75,7,2,9,0.00
2014-7-15,75.3,68.7,62.0,69.0,61.2,54.0,97,79,48,29.77,29.65,23,6,26,0.04
2014-7-16,69.4,62.5,53.8,58.0,55.5,52.0,95,78,57,29.93,29.77,19,4,20,0.00
2014-7-17,71.0,63.5,54.2,58.0,54.4,51.0,93,74,54,30.12,29.94,16,4,18,0.00
2014-7-18,77.9,66.2,51.5,61.0,54.6,50.0,96,69,39,30.23,30.12,7,1,9,0.00
2014-7-19,69.2,64.3,58.5,66.0,61.4,56.0,95,90,77,30.19,30.08,7,1,11,0.44
2014-7-20,77.7,70.0,64.1,67.0,64.8,63.0,96,84,65,30.08,30.03,9,2,11,0.00
2014-7-21,84.1,72.2,60.3,70.0,64.9,59.0,97,80,45,30.13,30.05,8,1,10,0.00
2014-7-22,84.6,74.2,59.5,69.0,65.2,58.0,97,76,52,30.11,29.90,12,3,15,0.00
2014-7-23,76.1,71.4,64.1,72.0,65.5,58.0,92,82,67,29.97,29.82,13,5,17,0.03
2014-7-24,72.0,64.8,56.9,58.0,52.4,46.0,85,66,43,30.05,29.96,9,3,13,0.00
2014-7-25,73.5,64.4,51.0,62.0,55.8,50.0,97,75,49,30.06,29.95,15,4,19,0.00
2014-7-26,76.5,70.1,60.2,65.0,61.2,57.0,91,74,54,29.96,29.73,13,4,18,0.00
2014-7-27,80.5,74.1,64.8,69.0,66.6,63.0,95,78,60,29.73,29.55,14,5,18,0.06
2014-7-28,67.4,62.4,56.5,64.0,58.8,52.0,98,89,67,29.86,29.54,18,4,21,1.40
2014-7-29,69.0,62.1,53.3,58.0,54.6,50.0,96,78,52,29.95,29.85,11,2,16,0.02
2014-7-30,70.6,63.1,58.8,63.0,59.6,55.0,95,88,75,29.97,29.91,12,2,21,0.63
2014-7-31,73.9,65.2,56.3,64.0,58.2,53.0,97,80,49,30.05,29.95,17,4,21,0.23
2014-8-1,79.7,70.9,62.2,67.0,62.7,59.0,95,77,49,30.10,30.04,16,4,16,0.07
2014-8-2,80.1,70.6,62.6,70.0,65.2,62.0,96,83,61,30.11,30.02,9,2,12,0.02
2014-8-3,73.9,68.5,64.1,67.0,64.9,63.0,97,88,72,30.09,30.03,4,1,6,0.07
2014-8-4,79.2,69.7,61.2,70.0,64.2,60.0,98,84,52,30.07,30.01,12,3,17,0.01
2014-8-5,75.1,66.9,60.2,67.0,63.0,59.0,97,88,64,30.04,29.98,6,1,7,0.05
2014-8-6,75.1,66.8,58.6,66.0,58.4,52.0,98,77,45,29.99,29.95,11,2,12,0.01
2014-8-7,74.8,66.6,57.1,63.0,57.1,52.0,95,74,46,30.08,29.99,9,2,14,0.00
2014-8-8,76.2,65.1,53.4,65.0,56.9,52.0,97,77,51,30.15,30.08,7,1,11,0.00
2014-8-9,79.4,66.6,52.5,63.0,57.0,51.0,97,74,43,30.15,30.10,7,1,13,0.00
2014-8-10,83.4,69.9,55.3,66.0,60.1,54.0,96,73,46,30.13,30.03,12,1,13,0.00
2014-8-11,85.0,73.8,60.1,66.0,61.2,57.0,95,67,46,30.05,29.80,15,3,21,0.00
2014-8-12,79.5,71.5,66.7,70.0,65.9,60.0,92,83,60,29.80,29.66,15,5,21,0.66
2014-8-13,72.2,66.1,56.7,66.0,59.2,50.0,92,79,65,29.89,29.67,16,4,22,0.01
2014-8-14,66.9,60.3,54.6,55.0,50.3,45.0,89,71,49,29.91,29.85,12,3,20,0.00
2014-8-15,72.8,63.0,55.6,56.0,50.8,48.0,80,66,44,29.94,29.90,12,4,20,0.00
2014-8-16,70.1,65.5,57.7,63.0,57.6,50.0,86,76,59,29.93,29.82,21,7,27,0.10
2014-8-17,76.0,68.4,62.5,63.0,59.8,57.0,88,75,52,29.97,29.82,10,2,10,0.00
2014-8-18,73.0,65.3,55.9,60.0,57.3,54.0,93,76,58,29.97,29.86,8,2,11,0.00
2014-8-19,82.3,69.1,55.8,67.0,60.3,53.0,92,75,51,29.87,29.80,6,1,8,0.00
2014-8-20,79.8,73.4,68.1,68.0,65.8,58.0,88,77,64,29.89,29.79,10,2,14,0.00
2014-8-21,80.6,74.1,69.1,69.0,67.3,66.0,92,80,63,29.94,29.88,14,4,16,0.00
2014-8-22,80.2,71.3,64.0,69.0,65.8,62.0,94,84,65,29.98,29.92,8,1,12,0.00
2014-8-23,77.0,70.1,66.7,69.0,66.0,64.0,93,87,74,30.08,29.96,9,3,14,0.00
2014-8-24,81.5,71.3,61.6,67.0,63.2,60.0,93,77,53,30.15,30.08,6,1,9,0.01
2014-8-25,83.0,71.9,60.0,65.0,61.2,58.0,92,72,47,30.17,30.06,12,2,15,0.00
2014-8-26,85.5,76.2,68.0,70.0,65.9,61.0,86,71,58,30.08,29.95,19,5,23,0.00
2014-8-27,79.5,73.0,66.0,71.0,61.3,54.0,87,68,43,30.04,29.96,8,3,15,0.00
2014-8-28,73.0,64.0,52.9,58.0,50.6,44.0,90,65,39,30.13,30.01,8,3,17,0.00
2014-8-29,78.1,64.7,50.6,60.0,53.9,48.0,92,71,39,30.18,30.07,7,1,11,0.00
2014-8-30,87.4,76.5,64.2,71.0,64.9,58.0,84,68,52,30.09,29.88,16,5,18,0.06
2014-8-31,77.7,75.5,71.5,71.0,70.0,69.0,91,83,78,29.93,29.89,17,7,20,0.00
2014-9-1,84.6,76.5,70.1,72.0,70.3,68.0,93,82,65,29.95,29.78,14,4,21,0.00
2014-9-2,77.7,70.3,67.2,72.0,66.7,65.0,93,85,77,29.89,29.77,11,5,33,0.35
2014-9-3,80.3,70.7,61.0,66.0,61.9,58.0,94,76,47,30.06,29.89,15,2,16,0.01
2014-9-4,85.0,73.6,60.7,68.0,62.8,59.0,94,72,41,30.07,29.99,15,4,18,0.01
2014-9-5,89.0,78.5,70.0,74.0,68.4,65.0,92,72,55,30.05,29.84,22,6,26,1.02
2014-9-6,70.8,61.3,54.7,69.0,56.1,51.0,93,76,67,30.06,29.79,14,2,15,0.42
2014-9-7,73.1,61.3,50.9,59.0,50.4,42.0,93,71,33,30.21,30.06,7,1,9,0.00
2014-9-8,80.2,66.1,50.2,58.0,53.0,45.0,93,67,32,30.25,30.12,7,1,11,0.00
2014-9-9,79.2,70.5,63.3,66.0,60.1,56.0,80,70,59,30.15,30.01,8,2,14,0.00
2014-9-10,79.9,73.0,66.5,69.0,65.6,62.0,87,78,65,30.03,29.59,18,5,39,0.10
2014-9-11,76.3,65.4,56.2,71.0,58.9,49.0,89,79,72,30.12,29.55,20,5,35,0.12
2014-9-12,59.0,54.1,46.5,51.0,46.1,44.0,91,75,60,30.27,30.13,9,2,13,0.00
2014-9-13,62.1,53.4,46.4,55.0,48.4,44.0,92,83,72,30.31,30.00,9,2,18,0.23
2014-9-14,63.3,52.9,40.9,50.0,44.9,39.0,93,76,49,30.35,30.21,5,1,8,0.00
2014-9-15,66.4,58.4,48.3,55.0,50.6,45.0,91,77,49,30.21,30.04,11,2,15,0.17
2014-9-16,67.1,59.0,52.6,54.0,49.5,39.0,92,73,39,30.09,30.01,8,1,12,0.08
2014-9-17,68.0,57.2,44.4,52.0,48.0,42.0,93,74,48,30.04,29.95,15,3,19,0.00
2014-9-18,59.1,51.2,41.8,55.0,47.7,40.0,93,88,78,30.22,29.96,9,2,14,0.00
2014-9-19,69.3,53.1,39.8,55.0,43.9,38.0,94,74,39,30.32,30.08,8,2,11,0.01
2014-9-20,77.8,70.4,61.4,64.0,60.4,55.0,82,71,56,30.08,29.76,25,9,34,0.00
2014-9-21,75.8,65.0,55.4,68.0,56.8,52.0,92,69,57,29.75,29.53,25,8,36,0.29
2014-9-22,58.3,53.3,47.9,52.0,44.2,41.0,91,72,56,30.22,29.73,13,4,18,0.02
2014-9-23,69.0,58.4,47.2,55.0,49.1,42.0,91,72,51,30.38,30.22,14,4,18,0.00
2014-9-24,78.5,63.6,47.3,59.0,53.2,45.0,94,72,43,30.50,30.38,7,1,12,0.00
2014-9-25,73.6,61.5,51.2,58.0,54.4,49.0,92,79,57,30.40,30.27,9,1,11,0.00
2014-9-26,77.3,61.7,47.3,59.0,52.8,45.0,94,76,43,30.33,30.25,6,1,7,0.00
2014-9-27,79.7,63.2,49.3,61.0,54.0,47.0,94,75,42,30.31,30.19,6,1,8,0.00
2014-9-28,81.1,65.4,51.7,62.0,56.6,50.0,93,76,47,30.19,30.02,6,1,7,0.00
2014-9-29,77.8,66.4,53.9,64.0,59.3,52.0,94,80,47,30.01,29.86,10,2,12,0.00
2014-9-30,72.7,63.7,53.1,63.0,58.8,51.0,94,85,64,29.96,29.84,8,1,13,0.24
2014-10-1,69.5,62.7,59.5,62.0,59.4,57.0,92,89,77,30.06,29.97,8,2,11,0.00
2014-10-2,75.6,65.6,56.1,61.0,58.1,54.0,94,78,54,30.08,29.94,9,2,14,0.00
2014-10-3,78.1,66.6,58.6,63.0,59.4,55.0,91,78,53,29.94,29.51,18,5,30,0.19
2014-10-4,63.2,51.8,43.5,61.0,47.5,40.0,92,85,68,29.69,29.49,18,6,33,0.92
2014-10-5,52.1,47.0,41.2,47.0,41.9,39.0,92,83,68,29.84,29.66,13,4,20,0.19
2014-10-6,65.8,57.7,50.8,56.0,47.7,40.0,90,70,57,29.83,29.71,18,5,22,0.14
2014-10-7,65.5,60.1,55.5,56.0,52.3,47.0,92,76,54,29.83,29.66,21,6,32,0.31
2014-10-8,60.7,55.5,51.9,54.0,44.2,33.0,92,68,38,29.93,29.64,16,6,32,0.13
2014-10-9,60.8,51.3,42.0,41.0,38.3,34.0,84,64,40,30.07,29.93,16,4,21,0.00
2014-10-10,57.3,50.6,42.0,44.0,40.7,38.0,88,70,53,30.13,30.06,6,1,9,0.00
2014-10-11,58.8,48.9,39.5,47.0,39.9,36.0,91,73,44,30.23,30.10,7,1,12,0.00
2014-10-12,62.4,47.5,33.7,44.0,37.8,32.0,93,73,40,30.29,30.12,6,1,10,0.00
2014-10-13,72.1,62.1,46.4,62.0,55.7,41.0,91,80,70,30.11,29.97,12,2,18,0.20
2014-10-14,81.0,73.3,64.8,66.0,62.2,59.0,81,69,54,29.96,29.73,22,6,27,0.04
2014-10-15,75.0,63.0,55.8,66.0,58.3,53.0,91,85,71,29.84,29.69,14,4,21,0.04
2014-10-16,65.5,59.9,55.2,59.0,55.7,53.0,94,86,69,29.74,29.61,15,5,19,0.01
2014-10-17,64.2,59.9,56.7,57.0,54.5,53.0,92,83,72,29.64,29.49,17,7,26,0.15
2014-10-18,62.0,51.7,44.4,53.0,45.2,38.0,90,79,69,29.96,29.50,16,6,20,0.10
2014-10-19,50.4,44.3,39.4,37.0,32.9,29.0,85,65,44,30.13,29.96,12,4,16,0.00
2014-10-20,58.8,51.3,39.1,50.0,44.4,36.0,90,78,64,30.01,29.80,18,4,25,0.06
2014-10-21,55.2,50.9,45.8,51.0,48.7,44.0,94,92,86,30.11,29.76,10,3,16,0.40
2014-10-22,50.2,47.7,45.1,44.0,42.9,42.0,94,84,75,30.25,30.11,10,4,16,0.00
2014-10-23,61.0,52.6,46.5,45.0,43.8,42.0,89,73,54,30.19,30.03,11,4,15,0.00
2014-10-24,56.0,50.0,41.7,48.0,43.2,39.0,92,78,55,30.04,29.93,12,3,14,0.00
2014-10-25,62.7,57.9,53.4,56.0,51.6,43.0,88,80,63,29.93,29.59,25,7,28,0.00
2014-10-26,53.5,50.2,43.0,43.0,40.6,38.0,81,70,61,29.93,29.64,13,5,20,0.00
2014-10-27,64.2,50.4,33.6,47.0,39.9,32.0,93,70,39,30.03,29.80,7,2,11,0.00
2014-10-28,74.7,66.5,54.7,60.0,57.1,47.0,89,72,54,29.83,29.69,24,8,28,0.02
2014-10-29,58.5,52.6,46.3,53.0,40.8,36.0,83,65,47,29.98,29.82,16,5,23,0.00
2014-10-30,50.3,46.1,39.6,41.0,38.5,37.0,90,75,62,30.09,29.98,8,2,13,0.00
2014-10-31,50.4,45.9,41.6,44.0,41.3,37.0,91,84,67,30.02,29.89,6,1,11,0.15
2014-11-1,44.7,39.4,37.5,42.0,35.6,31.0,92,86,75,30.20,29.98,14,7,20,0.06
2014-11-2,45.8,39.5,33.8,31.0,28.0,24.0,81,65,46,30.32,30.21,17,5,21,0.00
2014-11-3,57.4,50.2,38.7,44.0,33.9,27.0,67,55,37,30.23,30.06,18,8,28,0.00
2014-11-4,60.6,57.6,53.1,52.0,41.3,35.0,90,57,40,30.06,29.88,23,11,29,0.20
2014-11-5,53.9,47.4,37.6,49.0,39.3,35.0,91,74,55,30.13,29.92,22,7,31,0.00
2014-11-6,50.9,43.4,37.6,42.0,39.0,35.0,93,85,67,30.08,29.76,9,1,12,0.01
2014-11-7,43.2,37.6,32.8,41.0,30.4,24.0,92,76,58,30.05,29.78,15,5,21,0.18
2014-11-8,47.3,39.9,29.6,40.0,32.1,25.0,87,75,58,30.02,29.71,21,6,30,0.07
2014-11-9,49.7,42.3,34.8,38.0,33.2,30.0,84,71,57,29.96,29.84,15,6,21,0.02
2014-11-10,60.4,50.4,42.5,37.0,35.0,33.0,74,57,39,30.03,29.83,9,3,13,0.00
2014-11-11,67.7,60.1,53.1,52.0,41.8,38.0,84,52,39,29.83,29.66,15,7,21,0.00
2014-11-12,54.6,39.3,34.2,50.0,29.0,21.0,89,67,57,30.15,29.71,20,8,25,0.03
2014-11-13,34.2,31.8,26.9,28.0,25.1,21.0,88,77,60,30.14,30.05,10,4,12,0.00
2014-11-14,35.7,30.4,26.2,26.0,22.1,19.0,81,72,54,30.27,30.07,12,4,17,0.00
2014-11-15,36.4,31.4,25.6,27.0,22.5,19.0,88,71,51,30.34,30.23,12,3,18,0.00
2014-11-16,38.7,32.9,29.1,30.0,26.4,23.0,92,78,54,30.24,29.94,15,2,21,0.00
2014-11-17,34.4,32.3,24.1,33.0,29.0,12.0,93,88,60,29.93,29.52,23,4,25,0.15
2014-11-18,24.8,21.5,16.8,13.0,8.5,5.0,71,58,44,30.04,29.68,28,12,35,0.00
2014-11-19,33.3,22.7,15.4,29.0,16.4,9.0,91,77,60,30.12,29.70,25,8,37,0.00
2014-11-20,29.9,26.0,19.6,23.0,15.0,9.0,81,64,46,30.01,29.74,24,8,30,0.00
2014-11-21,29.0,23.0,18.0,18.0,13.2,10.0,81,67,48,30.44,30.02,14,4,20,0.00
2014-11-22,46.8,37.7,25.3,42.0,30.1,16.0,91,74,50,30.37,29.95,19,11,27,0.11
2014-11-23,54.6,49.0,45.0,44.0,40.7,38.0,88,74,54,30.01,29.55,14,6,17,0.10
2014-11-24,65.1,54.0,42.9,53.0,46.2,33.0,90,75,55,29.64,29.17,29,16,52,0.30
2014-11-25,43.1,38.6,34.4,34.0,29.4,22.0,80,70,59,30.18,29.66,31,13,39,0.00
2014-11-26,35.0,32.2,29.1,30.0,25.3,21.0,89,76,59,30.21,30.04,9,3,13,0.00
2014-11-27,35.9,31.3,28.1,29.0,24.8,22.0,92,77,61,30.14,30.02,9,3,16,0.00
2014-11-28,27.8,24.0,19.2,25.0,15.4,12.0,91,70,55,30.28,30.14,14,4,21,0.00
2014-11-29,47.2,35.1,23.8,37.0,25.5,18.0,83,69,55,30.20,29.82,17,5,23,0.06
2014-11-30,59.6,54.3,44.3,52.0,46.1,35.0,90,74,66,29.90,29.74,22,11,29,0.13
2014-12-1,43.7,34.1,25.1,40.0,24.7,14.0,88,69,55,30.64,29.91,12,6,19,0.00
2014-12-2,36.6,28.1,20.1,35.0,20.5,13.0,92,74,58,30.64,30.06,12,5,18,0.01
2014-12-3,39.6,36.7,32.6,38.0,31.2,21.0,93,81,62,30.22,29.96,21,10,27,0.07
2014-12-4,34.7,29.2,25.7,21.0,19.9,17.0,82,69,53,30.48,30.21,10,4,20,0.00
2014-12-5,40.9,33.5,25.0,34.0,27.4,21.0,87,79,64,30.47,30.20,9,2,14,0.00
2014-12-6,39.0,37.2,32.5,35.0,30.6,23.0,90,78,62,30.52,30.17,14,4,18,0.00
2014-12-7,32.2,27.8,24.2,24.0,17.9,14.0,78,67,50,30.75,30.53,13,5,15,0.00
2014-12-8,41.2,32.4,23.5,29.0,17.9,10.0,75,58,28,30.60,30.17,17,5,19,0.00
2014-12-9,43.3,38.0,34.7,34.0,32.4,29.0,92,80,69,30.17,30.05,10,3,18,0.01
2014-12-10,35.0,29.3,24.8,33.0,25.6,22.0,92,86,77,30.07,29.82,16,8,24,0.02
2014-12-11,28.0,25.6,24.0,26.0,23.4,22.0,92,91,90,29.94,29.76,14,4,16,0.00
2014-12-12,36.4,30.9,27.1,31.0,26.9,24.0,92,85,62,30.12,29.94,10,4,13,0.00
2014-12-13,37.0,33.9,31.7,34.0,31.1,29.0,92,89,86,30.11,29.92,20,7,24,0.03
2014-12-14,38.7,37.4,36.0,36.0,35.3,34.0,93,92,90,30.05,29.91,8,2,11,0.01
2014-12-15,41.0,37.6,35.2,38.0,35.5,33.0,93,92,89,30.08,29.94,6,2,8,0.01
2014-12-16,45.3,38.9,33.0,43.0,37.4,32.0,94,94,91,29.94,29.68,14,4,21,0.28
2014-12-17,42.6,36.0,30.0,41.0,33.3,25.0,94,90,83,29.99,29.75,18,10,24,0.20
2014-12-18,32.8,30.8,28.1,29.0,26.5,24.0,89,84,80,30.09,29.99,13,5,22,0.00
2014-12-19,29.8,27.8,25.6,24.0,22.4,21.0,85,80,74,30.27,30.08,10,4,13,0.00
2014-12-20,32.7,27.5,22.9,26.0,22.9,20.0,90,83,72,30.30,30.22,7,1,7,0.00
2014-12-21,35.0,30.1,26.2,25.0,23.5,22.0,87,77,64,30.32,30.26,6,1,9,0.00
2014-12-22,40.2,34.1,28.5,29.0,26.4,23.0,82,74,61,30.27,30.00,7,2,11,0.00
2014-12-23,50.3,42.9,34.6,45.0,38.2,29.0,89,84,77,30.00,29.82,6,2,9,0.00
2014-12-24,56.2,51.8,41.8,50.0,47.3,39.0,92,85,79,29.81,29.16,38,6,38,0.10
2014-12-25,42.8,40.5,38.7,39.0,34.0,30.0,86,78,69,30.10,29.30,41,15,46,0.00
2014-12-26,46.6,40.9,37.1,35.0,33.2,30.0,87,75,60,30.19,30.08,17,8,25,0.00
2014-12-27,54.0,46.7,36.6,44.0,39.1,34.0,90,75,61,30.14,29.85,19,8,26,0.00
2014-12-28,48.4,36.5,29.3,44.0,29.7,24.0,90,77,65,30.11,29.83,23,5,28,0.20
2014-12-29,31.0,27.8,24.9,25.0,20.9,14.0,88,76,62,30.33,30.11,7,2,9,0.00
2014-12-30,27.4,24.5,20.2,20.0,12.3,7.0,86,61,46,30.45,30.33,15,5,20,0.00
2014-12-31,23.3,19.7,15.0,16.0,9.1,3.0,88,64,46,30.36,30.03,20,9,30,0.00
2015-1-1,31.8,26.7,20.6,22.0,16.8,6.0,76,67,52,30.03,29.81,30,14,41,0.00
2015-1-2,32.5,29.1,21.8,22.0,18.4,15.0,79,65,53,30.41,29.98,22,6,30,0.00